sensor_id;sensor_type;location;lat;lon;timestamp;P1;durP1;ratioP1;P2;durP2;ratioP2
70545;SDS011;58098;51.680;5.134;2023-08-21T00:01:01;7.17;;;2.43;;
70545;SDS011;58098;51.680;5.134;2023-08-21T00:03:26;7.10;;;2.43;;
70545;SDS011;58098;51.680;5.134;2023-08-21T00:05:52;7.80;;;2.30;;
70545;SDS011;58098;51.680;5.134;2023-08-21T00:08:17;8.80;;;2.40;;
70545;SDS011;58098;51.680;5.134;2023-08-21T00:10:43;5.77;;;2.53;;
70545;SDS011;58098;51.680;5.134;2023-08-21T00:13:08;9.27;;;2.57;;
70545;SDS011;58098;51.680;5.134;2023-08-21T00:15:34;7.90;;;2.28;;
70545;SDS011;58098;51.680;5.134;2023-08-21T00:18:00;12.30;;;3.15;;
70545;SDS011;58098;51.680;5.134;2023-08-21T00:20:25;7.17;;;2.23;;
70545;SDS011;58098;51.680;5.134;2023-08-21T00:22:51;7.23;;;2.50;;
70545;SDS011;58098;51.680;5.134;2023-08-21T00:25:16;6.50;;;2.58;;
70545;SDS011;58098;51.680;5.134;2023-08-21T00:27:42;7.77;;;2.57;;
70545;SDS011;58098;51.680;5.134;2023-08-21T00:30:07;8.20;;;2.53;;
70545;SDS011;58098;51.680;5.134;2023-08-21T00:32:33;10.65;;;2.95;;
70545;SDS011;58098;51.680;5.134;2023-08-21T00:34:58;8.20;;;2.40;;
70545;SDS011;58098;51.680;5.134;2023-08-21T00:37:24;9.10;;;2.80;;
70545;SDS011;58098;51.680;5.134;2023-08-21T00:39:49;8.97;;;2.40;;
70545;SDS011;58098;51.680;5.134;2023-08-21T00:42:15;7.00;;;2.07;;
70545;SDS011;58098;51.680;5.134;2023-08-21T00:44:40;7.50;;;2.63;;
70545;SDS011;58098;51.680;5.134;2023-08-21T00:47:05;9.57;;;2.40;;
70545;SDS011;58098;51.680;5.134;2023-08-21T00:49:31;8.15;;;2.17;;
70545;SDS011;58098;51.680;5.134;2023-08-21T00:51:57;9.75;;;2.70;;
70545;SDS011;58098;51.680;5.134;2023-08-21T00:54:23;8.57;;;2.73;;
70545;SDS011;58098;51.680;5.134;2023-08-21T00:56:49;10.05;;;2.83;;
70545;SDS011;58098;51.680;5.134;2023-08-21T00:59:17;8.85;;;3.05;;
70545;SDS011;58098;51.680;5.134;2023-08-21T01:01:43;8.67;;;3.10;;
70545;SDS011;58098;51.680;5.134;2023-08-21T01:04:09;6.65;;;2.28;;
70545;SDS011;58098;51.680;5.134;2023-08-21T01:06:35;8.30;;;2.67;;
70545;SDS011;58098;51.680;5.134;2023-08-21T01:09:02;8.87;;;2.80;;
70545;SDS011;58098;51.680;5.134;2023-08-21T01:11:38;9.88;;;2.58;;
70545;SDS011;58098;51.680;5.134;2023-08-21T01:14:25;11.60;;;3.17;;
70545;SDS011;58098;51.680;5.134;2023-08-21T01:16:56;13.73;;;3.47;;
70545;SDS011;58098;51.680;5.134;2023-08-21T01:19:30;8.98;;;2.80;;
70545;SDS011;58098;51.680;5.134;2023-08-21T01:22:01;7.18;;;3.13;;
70545;SDS011;58098;51.680;5.134;2023-08-21T01:24:26;11.10;;;3.30;;
70545;SDS011;58098;51.680;5.134;2023-08-21T01:26:52;9.07;;;2.97;;
70545;SDS011;58098;51.680;5.134;2023-08-21T01:29:17;10.40;;;3.00;;
70545;SDS011;58098;51.680;5.134;2023-08-21T01:31:43;13.97;;;3.50;;
70545;SDS011;58098;51.680;5.134;2023-08-21T01:34:14;9.70;;;3.63;;
70545;SDS011;58098;51.680;5.134;2023-08-21T01:36:41;11.05;;;3.20;;
70545;SDS011;58098;51.680;5.134;2023-08-21T01:39:08;13.80;;;3.35;;
70545;SDS011;58098;51.680;5.134;2023-08-21T01:41:34;6.23;;;3.17;;
70545;SDS011;58098;51.680;5.134;2023-08-21T01:43:59;12.07;;;3.80;;
70545;SDS011;58098;51.680;5.134;2023-08-21T01:46:24;10.60;;;3.10;;
70545;SDS011;58098;51.680;5.134;2023-08-21T01:48:50;10.93;;;3.97;;
70545;SDS011;58098;51.680;5.134;2023-08-21T01:51:15;9.93;;;3.53;;
70545;SDS011;58098;51.680;5.134;2023-08-21T01:53:40;9.83;;;3.33;;
70545;SDS011;58098;51.680;5.134;2023-08-21T01:56:06;11.20;;;3.73;;
70545;SDS011;58098;51.680;5.134;2023-08-21T01:58:31;8.40;;;3.90;;
70545;SDS011;58098;51.680;5.134;2023-08-21T02:00:56;10.60;;;3.57;;
70545;SDS011;58098;51.680;5.134;2023-08-21T02:03:24;16.50;;;4.40;;
70545;SDS011;58098;51.680;5.134;2023-08-21T02:05:50;9.82;;;3.83;;
70545;SDS011;58098;51.680;5.134;2023-08-21T02:08:17;14.33;;;4.10;;
70545;SDS011;58098;51.680;5.134;2023-08-21T02:10:51;10.15;;;4.10;;
70545;SDS011;58098;51.680;5.134;2023-08-21T02:13:18;10.93;;;3.70;;
70545;SDS011;58098;51.680;5.134;2023-08-21T02:15:44;12.00;;;3.83;;
70545;SDS011;58098;51.680;5.134;2023-08-21T02:18:09;11.57;;;3.90;;
70545;SDS011;58098;51.680;5.134;2023-08-21T02:20:35;10.87;;;4.40;;
70545;SDS011;58098;51.680;5.134;2023-08-21T02:23:00;11.57;;;4.73;;
70545;SDS011;58098;51.680;5.134;2023-08-21T02:25:25;9.80;;;4.63;;
70545;SDS011;58098;51.680;5.134;2023-08-21T02:27:51;12.77;;;5.10;;
70545;SDS011;58098;51.680;5.134;2023-08-21T02:30:16;9.10;;;4.30;;
70545;SDS011;58098;51.680;5.134;2023-08-21T02:32:41;10.55;;;4.35;;
70545;SDS011;58098;51.680;5.134;2023-08-21T02:35:07;9.37;;;3.90;;
70545;SDS011;58098;51.680;5.134;2023-08-21T02:37:33;8.82;;;4.47;;
70545;SDS011;58098;51.680;5.134;2023-08-21T02:39:59;11.07;;;4.50;;
70545;SDS011;58098;51.680;5.134;2023-08-21T02:42:25;9.83;;;4.33;;
70545;SDS011;58098;51.680;5.134;2023-08-21T02:44:50;9.13;;;4.43;;
70545;SDS011;58098;51.680;5.134;2023-08-21T02:47:16;14.60;;;5.60;;
70545;SDS011;58098;51.680;5.134;2023-08-21T02:49:41;11.95;;;4.72;;
70545;SDS011;58098;51.680;5.134;2023-08-21T02:52:06;14.27;;;5.23;;
70545;SDS011;58098;51.680;5.134;2023-08-21T02:54:32;11.83;;;5.20;;
70545;SDS011;58098;51.680;5.134;2023-08-21T02:56:57;10.97;;;5.27;;
70545;SDS011;58098;51.680;5.134;2023-08-21T02:59:23;13.02;;;5.47;;
70545;SDS011;58098;51.680;5.134;2023-08-21T03:01:48;11.57;;;5.30;;
70545;SDS011;58098;51.680;5.134;2023-08-21T03:04:13;15.13;;;5.47;;
70545;SDS011;58098;51.680;5.134;2023-08-21T03:06:39;13.03;;;4.93;;
70545;SDS011;58098;51.680;5.134;2023-08-21T03:09:04;10.60;;;5.30;;
70545;SDS011;58098;51.680;5.134;2023-08-21T03:11:29;12.13;;;5.40;;
70545;SDS011;58098;51.680;5.134;2023-08-21T03:13:55;10.27;;;5.40;;
70545;SDS011;58098;51.680;5.134;2023-08-21T03:16:20;10.43;;;4.50;;
70545;SDS011;58098;51.680;5.134;2023-08-21T03:18:58;11.67;;;5.30;;
70545;SDS011;58098;51.680;5.134;2023-08-21T03:21:25;13.45;;;5.28;;
70545;SDS011;58098;51.680;5.134;2023-08-21T03:23:51;11.93;;;5.67;;
70545;SDS011;58098;51.680;5.134;2023-08-21T03:26:20;12.27;;;5.30;;
70545;SDS011;58098;51.680;5.134;2023-08-21T03:28:45;10.93;;;5.53;;
70545;SDS011;58098;51.680;5.134;2023-08-21T03:31:10;11.25;;;5.15;;
70545;SDS011;58098;51.680;5.134;2023-08-21T03:33:36;9.30;;;4.30;;
70545;SDS011;58098;51.680;5.134;2023-08-21T03:36:01;6.67;;;3.90;;
70545;SDS011;58098;51.680;5.134;2023-08-21T03:38:27;12.23;;;4.05;;
70545;SDS011;58098;51.680;5.134;2023-08-21T03:40:52;9.93;;;4.07;;
70545;SDS011;58098;51.680;5.134;2023-08-21T03:43:18;9.97;;;4.40;;
70545;SDS011;58098;51.680;5.134;2023-08-21T03:45:43;9.70;;;5.03;;
70545;SDS011;58098;51.680;5.134;2023-08-21T03:48:08;10.87;;;4.60;;
70545;SDS011;58098;51.680;5.134;2023-08-21T03:50:34;11.50;;;5.50;;
70545;SDS011;58098;51.680;5.134;2023-08-21T03:52:59;18.13;;;6.03;;
70545;SDS011;58098;51.680;5.134;2023-08-21T03:55:24;13.63;;;5.43;;
70545;SDS011;58098;51.680;5.134;2023-08-21T03:57:49;13.85;;;5.95;;
70545;SDS011;58098;51.680;5.134;2023-08-21T04:00:15;15.93;;;5.80;;
70545;SDS011;58098;51.680;5.134;2023-08-21T04:02:41;12.97;;;6.40;;
70545;SDS011;58098;51.680;5.134;2023-08-21T04:05:07;12.27;;;6.30;;
70545;SDS011;58098;51.680;5.134;2023-08-21T04:07:32;12.18;;;5.80;;
70545;SDS011;58098;51.680;5.134;2023-08-21T04:09:58;15.07;;;5.73;;
70545;SDS011;58098;51.680;5.134;2023-08-21T04:12:23;12.60;;;6.37;;
70545;SDS011;58098;51.680;5.134;2023-08-21T04:14:48;11.27;;;6.07;;
70545;SDS011;58098;51.680;5.134;2023-08-21T04:17:14;14.73;;;6.07;;
70545;SDS011;58098;51.680;5.134;2023-08-21T04:19:39;14.27;;;6.70;;
70545;SDS011;58098;51.680;5.134;2023-08-21T04:22:06;14.95;;;6.05;;
70545;SDS011;58098;51.680;5.134;2023-08-21T04:24:31;10.05;;;5.85;;
70545;SDS011;58098;51.680;5.134;2023-08-21T04:26:57;13.10;;;6.20;;
70545;SDS011;58098;51.680;5.134;2023-08-21T04:29:23;14.18;;;5.95;;
70545;SDS011;58098;51.680;5.134;2023-08-21T04:31:48;14.73;;;5.30;;
70545;SDS011;58098;51.680;5.134;2023-08-21T04:34:14;13.90;;;6.07;;
70545;SDS011;58098;51.680;5.134;2023-08-21T04:36:39;13.57;;;6.00;;
70545;SDS011;58098;51.680;5.134;2023-08-21T04:39:04;14.87;;;5.70;;
70545;SDS011;58098;51.680;5.134;2023-08-21T04:41:30;11.97;;;5.87;;
70545;SDS011;58098;51.680;5.134;2023-08-21T04:43:55;14.45;;;5.10;;
70545;SDS011;58098;51.680;5.134;2023-08-21T04:46:20;13.43;;;5.13;;
70545;SDS011;58098;51.680;5.134;2023-08-21T04:48:46;12.40;;;4.87;;
70545;SDS011;58098;51.680;5.134;2023-08-21T04:51:12;13.55;;;5.00;;
70545;SDS011;58098;51.680;5.134;2023-08-21T04:53:38;9.60;;;4.20;;
70545;SDS011;58098;51.680;5.134;2023-08-21T04:56:03;9.13;;;4.57;;
70545;SDS011;58098;51.680;5.134;2023-08-21T04:58:29;8.20;;;4.00;;
70545;SDS011;58098;51.680;5.134;2023-08-21T05:00:54;10.53;;;4.13;;
70545;SDS011;58098;51.680;5.134;2023-08-21T05:03:20;13.30;;;4.60;;
70545;SDS011;58098;51.680;5.134;2023-08-21T05:05:51;7.87;;;4.47;;
70545;SDS011;58098;51.680;5.134;2023-08-21T05:08:18;7.17;;;4.20;;
70545;SDS011;58098;51.680;5.134;2023-08-21T05:10:43;6.97;;;3.90;;
70545;SDS011;58098;51.680;5.134;2023-08-21T05:13:08;8.93;;;3.70;;
70545;SDS011;58098;51.680;5.134;2023-08-21T05:15:33;12.23;;;4.07;;
70545;SDS011;58098;51.680;5.134;2023-08-21T05:17:59;10.20;;;4.30;;
70545;SDS011;58098;51.680;5.134;2023-08-21T05:20:24;9.07;;;4.13;;
70545;SDS011;58098;51.680;5.134;2023-08-21T05:22:50;9.77;;;4.20;;
70545;SDS011;58098;51.680;5.134;2023-08-21T05:25:15;8.83;;;4.50;;
70545;SDS011;58098;51.680;5.134;2023-08-21T05:27:40;8.07;;;3.67;;
70545;SDS011;58098;51.680;5.134;2023-08-21T05:30:06;13.23;;;4.30;;
70545;SDS011;58098;51.680;5.134;2023-08-21T05:32:32;7.45;;;3.83;;
70545;SDS011;58098;51.680;5.134;2023-08-21T05:34:57;9.30;;;3.63;;
70545;SDS011;58098;51.680;5.134;2023-08-21T05:37:22;8.60;;;3.37;;
70545;SDS011;58098;51.680;5.134;2023-08-21T05:39:48;10.23;;;4.13;;
70545;SDS011;58098;51.680;5.134;2023-08-21T05:42:14;12.52;;;4.60;;
70545;SDS011;58098;51.680;5.134;2023-08-21T05:44:39;9.90;;;3.93;;
70545;SDS011;58098;51.680;5.134;2023-08-21T05:47:04;13.17;;;4.03;;
70545;SDS011;58098;51.680;5.134;2023-08-21T05:49:30;12.67;;;4.03;;
70545;SDS011;58098;51.680;5.134;2023-08-21T05:51:56;12.97;;;4.00;;
70545;SDS011;58098;51.680;5.134;2023-08-21T05:54:24;8.20;;;4.10;;
70545;SDS011;58098;51.680;5.134;2023-08-21T05:56:50;8.88;;;3.72;;
70545;SDS011;58098;51.680;5.134;2023-08-21T05:59:26;8.10;;;4.10;;
70545;SDS011;58098;51.680;5.134;2023-08-21T06:01:53;9.10;;;3.75;;
70545;SDS011;58098;51.680;5.134;2023-08-21T06:04:19;9.33;;;3.73;;
70545;SDS011;58098;51.680;5.134;2023-08-21T06:06:44;10.67;;;4.30;;
70545;SDS011;58098;51.680;5.134;2023-08-21T06:09:09;12.23;;;4.63;;
70545;SDS011;58098;51.680;5.134;2023-08-21T06:11:35;11.23;;;4.30;;
70545;SDS011;58098;51.680;5.134;2023-08-21T06:14:00;13.17;;;4.90;;
70545;SDS011;58098;51.680;5.134;2023-08-21T06:16:25;15.60;;;5.77;;
70545;SDS011;58098;51.680;5.134;2023-08-21T06:18:51;13.00;;;4.83;;
70545;SDS011;58098;51.680;5.134;2023-08-21T06:21:16;8.93;;;4.67;;
70545;SDS011;58098;51.680;5.134;2023-08-21T06:23:41;9.73;;;4.43;;
70545;SDS011;58098;51.680;5.134;2023-08-21T06:26:07;9.17;;;4.47;;
70545;SDS011;58098;51.680;5.134;2023-08-21T06:28:32;10.23;;;4.77;;
70545;SDS011;58098;51.680;5.134;2023-08-21T06:30:57;10.57;;;5.50;;
70545;SDS011;58098;51.680;5.134;2023-08-21T06:33:23;13.93;;;5.43;;
70545;SDS011;58098;51.680;5.134;2023-08-21T06:35:48;12.63;;;5.67;;
70545;SDS011;58098;51.680;5.134;2023-08-21T06:38:13;12.30;;;5.10;;
70545;SDS011;58098;51.680;5.134;2023-08-21T06:40:39;15.73;;;5.27;;
70545;SDS011;58098;51.680;5.134;2023-08-21T06:43:04;14.63;;;5.03;;
70545;SDS011;58098;51.680;5.134;2023-08-21T06:45:31;8.32;;;4.05;;
70545;SDS011;58098;51.680;5.134;2023-08-21T06:47:57;10.05;;;5.00;;
70545;SDS011;58098;51.680;5.134;2023-08-21T06:50:22;11.27;;;4.10;;
70545;SDS011;58098;51.680;5.134;2023-08-21T06:52:48;13.30;;;4.60;;
70545;SDS011;58098;51.680;5.134;2023-08-21T06:55:13;12.48;;;4.50;;
70545;SDS011;58098;51.680;5.134;2023-08-21T06:57:39;13.93;;;5.07;;
70545;SDS011;58098;51.680;5.134;2023-08-21T07:00:05;11.35;;;3.90;;
70545;SDS011;58098;51.680;5.134;2023-08-21T07:02:31;11.27;;;3.47;;
70545;SDS011;58098;51.680;5.134;2023-08-21T07:04:56;11.75;;;3.42;;
70545;SDS011;58098;51.680;5.134;2023-08-21T07:07:21;7.67;;;3.10;;
70545;SDS011;58098;51.680;5.134;2023-08-21T07:09:47;12.47;;;3.73;;
70545;SDS011;58098;51.680;5.134;2023-08-21T07:12:12;13.33;;;3.83;;
70545;SDS011;58098;51.680;5.134;2023-08-21T07:14:38;7.83;;;3.13;;
70545;SDS011;58098;51.680;5.134;2023-08-21T07:17:03;10.32;;;3.08;;
70545;SDS011;58098;51.680;5.134;2023-08-21T07:19:28;8.47;;;3.10;;
70545;SDS011;58098;51.680;5.134;2023-08-21T07:21:54;11.00;;;3.50;;
70545;SDS011;58098;51.680;5.134;2023-08-21T07:24:19;11.90;;;3.60;;
70545;SDS011;58098;51.680;5.134;2023-08-21T07:26:44;6.53;;;2.70;;
70545;SDS011;58098;51.680;5.134;2023-08-21T07:29:10;9.50;;;2.60;;
70545;SDS011;58098;51.680;5.134;2023-08-21T07:31:35;6.90;;;2.53;;
70545;SDS011;58098;51.680;5.134;2023-08-21T07:34:00;7.50;;;2.77;;
70545;SDS011;58098;51.680;5.134;2023-08-21T07:36:26;9.87;;;2.47;;
70545;SDS011;58098;51.680;5.134;2023-08-21T07:38:51;6.10;;;2.77;;
70545;SDS011;58098;51.680;5.134;2023-08-21T07:41:16;11.37;;;3.30;;
70545;SDS011;58098;51.680;5.134;2023-08-21T07:43:42;11.10;;;3.00;;
70545;SDS011;58098;51.680;5.134;2023-08-21T07:46:09;8.93;;;2.83;;
70545;SDS011;58098;51.680;5.134;2023-08-21T07:48:39;8.25;;;2.30;;
70545;SDS011;58098;51.680;5.134;2023-08-21T07:51:04;10.10;;;2.72;;
70545;SDS011;58098;51.680;5.134;2023-08-21T07:53:30;9.07;;;3.37;;
70545;SDS011;58098;51.680;5.134;2023-08-21T07:55:56;8.35;;;2.67;;
70545;SDS011;58098;51.680;5.134;2023-08-21T07:58:22;9.53;;;2.53;;
70545;SDS011;58098;51.680;5.134;2023-08-21T08:00:47;8.38;;;2.53;;
70545;SDS011;58098;51.680;5.134;2023-08-21T08:03:13;9.13;;;2.60;;
70545;SDS011;58098;51.680;5.134;2023-08-21T08:05:39;10.15;;;2.88;;
70545;SDS011;58098;51.680;5.134;2023-08-21T08:08:05;9.45;;;2.88;;
70545;SDS011;58098;51.680;5.134;2023-08-21T08:10:30;10.90;;;2.60;;
70545;SDS011;58098;51.680;5.134;2023-08-21T08:12:56;9.20;;;2.90;;
70545;SDS011;58098;51.680;5.134;2023-08-21T08:15:22;8.50;;;2.83;;
70545;SDS011;58098;51.680;5.134;2023-08-21T08:17:48;9.63;;;2.63;;
70545;SDS011;58098;51.680;5.134;2023-08-21T08:20:17;11.43;;;2.60;;
70545;SDS011;58098;51.680;5.134;2023-08-21T08:22:43;10.07;;;2.53;;
70545;SDS011;58098;51.680;5.134;2023-08-21T08:25:08;8.48;;;2.45;;
70545;SDS011;58098;51.680;5.134;2023-08-21T08:27:33;10.33;;;3.30;;
70545;SDS011;58098;51.680;5.134;2023-08-21T08:29:59;10.07;;;3.03;;
70545;SDS011;58098;51.680;5.134;2023-08-21T08:32:25;10.40;;;3.10;;
70545;SDS011;58098;51.680;5.134;2023-08-21T08:34:54;11.15;;;2.60;;
70545;SDS011;58098;51.680;5.134;2023-08-21T08:37:19;10.70;;;2.70;;
70545;SDS011;58098;51.680;5.134;2023-08-21T08:39:48;7.73;;;2.87;;
70545;SDS011;58098;51.680;5.134;2023-08-21T08:42:14;9.90;;;2.80;;
70545;SDS011;58098;51.680;5.134;2023-08-21T08:44:41;9.50;;;2.58;;
70545;SDS011;58098;51.680;5.134;2023-08-21T08:47:07;9.73;;;3.00;;
70545;SDS011;58098;51.680;5.134;2023-08-21T08:49:34;12.20;;;2.73;;
70545;SDS011;58098;51.680;5.134;2023-08-21T08:51:59;12.63;;;2.70;;
70545;SDS011;58098;51.680;5.134;2023-08-21T08:54:25;9.13;;;2.43;;
70545;SDS011;58098;51.680;5.134;2023-08-21T08:56:52;7.78;;;2.60;;
70545;SDS011;58098;51.680;5.134;2023-08-21T08:59:20;9.63;;;2.58;;
70545;SDS011;58098;51.680;5.134;2023-08-21T09:01:46;10.37;;;2.90;;
70545;SDS011;58098;51.680;5.134;2023-08-21T09:04:12;8.07;;;2.63;;
70545;SDS011;58098;51.680;5.134;2023-08-21T09:06:38;10.17;;;2.63;;
70545;SDS011;58098;51.680;5.134;2023-08-21T09:09:03;6.25;;;2.50;;
70545;SDS011;58098;51.680;5.134;2023-08-21T09:11:29;9.57;;;3.03;;
70545;SDS011;58098;51.680;5.134;2023-08-21T09:13:55;10.98;;;2.67;;
70545;SDS011;58098;51.680;5.134;2023-08-21T09:16:23;8.88;;;2.50;;
70545;SDS011;58098;51.680;5.134;2023-08-21T09:18:51;12.00;;;2.60;;
70545;SDS011;58098;51.680;5.134;2023-08-21T09:21:21;8.48;;;2.35;;
70545;SDS011;58098;51.680;5.134;2023-08-21T09:23:49;7.30;;;2.55;;
70545;SDS011;58098;51.680;5.134;2023-08-21T09:26:22;10.23;;;2.60;;
70545;SDS011;58098;51.680;5.134;2023-08-21T09:28:48;6.90;;;2.50;;
70545;SDS011;58098;51.680;5.134;2023-08-21T09:31:14;9.13;;;2.70;;
70545;SDS011;58098;51.680;5.134;2023-08-21T09:33:40;5.38;;;2.03;;
70545;SDS011;58098;51.680;5.134;2023-08-21T09:36:05;8.63;;;2.70;;
70545;SDS011;58098;51.680;5.134;2023-08-21T09:38:31;8.35;;;2.20;;
70545;SDS011;58098;51.680;5.134;2023-08-21T09:41:00;6.87;;;2.10;;
70545;SDS011;58098;51.680;5.134;2023-08-21T09:43:26;7.65;;;2.00;;
70545;SDS011;58098;51.680;5.134;2023-08-21T09:45:52;9.13;;;2.03;;
70545;SDS011;58098;51.680;5.134;2023-08-21T09:48:23;7.88;;;2.00;;
70545;SDS011;58098;51.680;5.134;2023-08-21T09:50:54;6.95;;;2.20;;
70545;SDS011;58098;51.680;5.134;2023-08-21T09:53:21;9.00;;;2.08;;
70545;SDS011;58098;51.680;5.134;2023-08-21T09:55:53;9.00;;;2.25;;
70545;SDS011;58098;51.680;5.134;2023-08-21T09:58:19;9.50;;;2.43;;
70545;SDS011;58098;51.680;5.134;2023-08-21T10:00:45;17.23;;;4.43;;
70545;SDS011;58098;51.680;5.134;2023-08-21T10:03:14;11.48;;;2.40;;
70545;SDS011;58098;51.680;5.134;2023-08-21T10:05:43;7.13;;;1.80;;
70545;SDS011;58098;51.680;5.134;2023-08-21T10:08:09;6.55;;;1.88;;
70545;SDS011;58098;51.680;5.134;2023-08-21T10:10:39;6.00;;;2.07;;
70545;SDS011;58098;51.680;5.134;2023-08-21T10:13:04;10.25;;;2.50;;
70545;SDS011;58098;51.680;5.134;2023-08-21T10:15:31;7.13;;;2.30;;
70545;SDS011;58098;51.680;5.134;2023-08-21T10:17:59;10.48;;;2.13;;
70545;SDS011;58098;51.680;5.134;2023-08-21T10:20:43;10.02;;;2.30;;
70545;SDS011;58098;51.680;5.134;2023-08-21T10:23:09;8.23;;;2.00;;
70545;SDS011;58098;51.680;5.134;2023-08-21T10:25:35;5.70;;;1.60;;
70545;SDS011;58098;51.680;5.134;2023-08-21T10:28:06;3.80;;;1.30;;
70545;SDS011;58098;51.680;5.134;2023-08-21T10:30:32;5.63;;;1.50;;
70545;SDS011;58098;51.680;5.134;2023-08-21T10:32:58;5.07;;;1.60;;
70545;SDS011;58098;51.680;5.134;2023-08-21T10:35:25;5.27;;;1.47;;
70545;SDS011;58098;51.680;5.134;2023-08-21T10:40:40;4.75;;;1.48;;
70545;SDS011;58098;51.680;5.134;2023-08-21T10:43:45;4.13;;;1.45;;
70545;SDS011;58098;51.680;5.134;2023-08-21T10:46:12;8.00;;;1.60;;
70545;SDS011;58098;51.680;5.134;2023-08-21T10:48:38;5.53;;;1.30;;
70545;SDS011;58098;51.680;5.134;2023-08-21T10:51:06;5.10;;;1.50;;
70545;SDS011;58098;51.680;5.134;2023-08-21T10:53:32;4.68;;;1.65;;
70545;SDS011;58098;51.680;5.134;2023-08-21T10:56:02;5.15;;;1.80;;
70545;SDS011;58098;51.680;5.134;2023-08-21T10:58:34;3.13;;;1.50;;
70545;SDS011;58098;51.680;5.134;2023-08-21T11:01:02;5.15;;;1.63;;
70545;SDS011;58098;51.680;5.134;2023-08-21T11:03:28;3.30;;;1.17;;
70545;SDS011;58098;51.680;5.134;2023-08-21T11:06:00;2.10;;;1.23;;
70545;SDS011;58098;51.680;5.134;2023-08-21T11:08:28;3.65;;;1.30;;
70545;SDS011;58098;51.680;5.134;2023-08-21T11:10:53;3.97;;;1.20;;
70545;SDS011;58098;51.680;5.134;2023-08-21T11:13:19;2.50;;;1.13;;
70545;SDS011;58098;51.680;5.134;2023-08-21T11:15:44;2.80;;;1.33;;
70545;SDS011;58098;51.680;5.134;2023-08-21T11:18:10;3.93;;;1.50;;
70545;SDS011;58098;51.680;5.134;2023-08-21T11:20:36;3.08;;;1.30;;
70545;SDS011;58098;51.680;5.134;2023-08-21T11:23:05;4.13;;;1.27;;
70545;SDS011;58098;51.680;5.134;2023-08-21T11:25:32;5.57;;;1.40;;
70545;SDS011;58098;51.680;5.134;2023-08-21T11:27:58;2.28;;;1.08;;
70545;SDS011;58098;51.680;5.134;2023-08-21T11:30:23;4.67;;;1.00;;
70545;SDS011;58098;51.680;5.134;2023-08-21T11:32:49;5.57;;;1.20;;
70545;SDS011;58098;51.680;5.134;2023-08-21T11:35:29;2.42;;;1.10;;
70545;SDS011;58098;51.680;5.134;2023-08-21T11:37:55;4.20;;;1.13;;
70545;SDS011;58098;51.680;5.134;2023-08-21T11:40:20;4.50;;;1.10;;
70545;SDS011;58098;51.680;5.134;2023-08-21T11:42:45;5.60;;;1.43;;
70545;SDS011;58098;51.680;5.134;2023-08-21T11:45:11;5.03;;;1.50;;
70545;SDS011;58098;51.680;5.134;2023-08-21T11:47:36;4.90;;;1.33;;
70545;SDS011;58098;51.680;5.134;2023-08-21T11:50:05;4.83;;;1.00;;
70545;SDS011;58098;51.680;5.134;2023-08-21T11:52:32;3.03;;;1.20;;
70545;SDS011;58098;51.680;5.134;2023-08-21T11:54:58;3.40;;;1.30;;
70545;SDS011;58098;51.680;5.134;2023-08-21T11:57:24;4.03;;;1.30;;
70545;SDS011;58098;51.680;5.134;2023-08-21T11:59:50;2.72;;;1.33;;
70545;SDS011;58098;51.680;5.134;2023-08-21T12:02:17;5.33;;;1.67;;
70545;SDS011;58098;51.680;5.134;2023-08-21T12:04:44;3.50;;;1.15;;
70545;SDS011;58098;51.680;5.134;2023-08-21T12:07:09;4.38;;;1.52;;
70545;SDS011;58098;51.680;5.134;2023-08-21T12:09:35;6.77;;;1.40;;
70545;SDS011;58098;51.680;5.134;2023-08-21T12:12:01;6.30;;;1.48;;
70545;SDS011;58098;51.680;5.134;2023-08-21T12:14:27;4.03;;;1.47;;
70545;SDS011;58098;51.680;5.134;2023-08-21T12:16:53;4.72;;;1.63;;
70545;SDS011;58098;51.680;5.134;2023-08-21T12:19:19;7.68;;;1.80;;
70545;SDS011;58098;51.680;5.134;2023-08-21T12:21:46;8.00;;;2.30;;
70545;SDS011;58098;51.680;5.134;2023-08-21T12:24:12;9.73;;;2.28;;
70545;SDS011;58098;51.680;5.134;2023-08-21T12:26:37;5.70;;;1.90;;
70545;SDS011;58098;51.680;5.134;2023-08-21T12:29:02;4.73;;;1.50;;
70545;SDS011;58098;51.680;5.134;2023-08-21T12:31:28;3.20;;;1.30;;
70545;SDS011;58098;51.680;5.134;2023-08-21T12:33:54;4.18;;;1.15;;
70545;SDS011;58098;51.680;5.134;2023-08-21T12:36:19;4.00;;;1.33;;
70545;SDS011;58098;51.680;5.134;2023-08-21T12:38:45;3.87;;;1.40;;
70545;SDS011;58098;51.680;5.134;2023-08-21T12:41:10;4.30;;;1.50;;
70545;SDS011;58098;51.680;5.134;2023-08-21T12:43:35;5.70;;;1.80;;
70545;SDS011;58098;51.680;5.134;2023-08-21T12:46:01;8.53;;;1.80;;
70545;SDS011;58098;51.680;5.134;2023-08-21T12:48:26;5.80;;;1.40;;
70545;SDS011;58098;51.680;5.134;2023-08-21T12:50:51;4.43;;;1.63;;
70545;SDS011;58098;51.680;5.134;2023-08-21T12:53:17;3.13;;;1.30;;
70545;SDS011;58098;51.680;5.134;2023-08-21T12:55:42;2.37;;;1.40;;
70545;SDS011;58098;51.680;5.134;2023-08-21T12:58:08;5.13;;;1.52;;
70545;SDS011;58098;51.680;5.134;2023-08-21T13:00:33;5.17;;;1.30;;
70545;SDS011;58098;51.680;5.134;2023-08-21T13:02:59;6.27;;;1.90;;
70545;SDS011;58098;51.680;5.134;2023-08-21T13:05:25;6.50;;;1.60;;
70545;SDS011;58098;51.680;5.134;2023-08-21T13:07:50;7.00;;;1.97;;
70545;SDS011;58098;51.680;5.134;2023-08-21T13:10:15;3.83;;;1.30;;
70545;SDS011;58098;51.680;5.134;2023-08-21T13:12:41;5.30;;;1.70;;
70545;SDS011;58098;51.680;5.134;2023-08-21T13:15:06;5.32;;;1.95;;
70545;SDS011;58098;51.680;5.134;2023-08-21T13:17:34;3.42;;;1.50;;
70545;SDS011;58098;51.680;5.134;2023-08-21T13:20:00;4.80;;;1.77;;
70545;SDS011;58098;51.680;5.134;2023-08-21T13:22:26;7.78;;;1.67;;
70545;SDS011;58098;51.680;5.134;2023-08-21T13:24:51;5.00;;;1.70;;
70545;SDS011;58098;51.680;5.134;2023-08-21T13:27:16;8.20;;;1.60;;
70545;SDS011;58098;51.680;5.134;2023-08-21T13:29:42;4.97;;;1.40;;
70545;SDS011;58098;51.680;5.134;2023-08-21T13:32:07;3.23;;;1.40;;
70545;SDS011;58098;51.680;5.134;2023-08-21T13:34:32;3.67;;;1.67;;
70545;SDS011;58098;51.680;5.134;2023-08-21T13:36:58;5.53;;;1.70;;
70545;SDS011;58098;51.680;5.134;2023-08-21T13:39:23;5.25;;;1.15;;
70545;SDS011;58098;51.680;5.134;2023-08-21T13:41:49;4.87;;;1.67;;
70545;SDS011;58098;51.680;5.134;2023-08-21T13:44:15;4.00;;;1.17;;
70545;SDS011;58098;51.680;5.134;2023-08-21T13:46:41;3.37;;;1.37;;
70545;SDS011;58098;51.680;5.134;2023-08-21T13:49:06;4.50;;;1.48;;
70545;SDS011;58098;51.680;5.134;2023-08-21T13:51:31;2.17;;;1.30;;
70545;SDS011;58098;51.680;5.134;2023-08-21T13:53:57;5.23;;;1.80;;
70545;SDS011;58098;51.680;5.134;2023-08-21T13:56:22;9.13;;;1.93;;
70545;SDS011;58098;51.680;5.134;2023-08-21T13:58:47;4.17;;;1.53;;
70545;SDS011;58098;51.680;5.134;2023-08-21T14:01:13;6.30;;;1.83;;
70545;SDS011;58098;51.680;5.134;2023-08-21T14:03:38;4.88;;;1.67;;
70545;SDS011;58098;51.680;5.134;2023-08-21T14:06:03;5.90;;;1.90;;
70545;SDS011;58098;51.680;5.134;2023-08-21T14:08:29;6.80;;;1.40;;
70545;SDS011;58098;51.680;5.134;2023-08-21T14:10:54;6.57;;;1.70;;
70545;SDS011;58098;51.680;5.134;2023-08-21T14:13:20;4.77;;;1.50;;
70545;SDS011;58098;51.680;5.134;2023-08-21T14:15:45;6.10;;;1.60;;
70545;SDS011;58098;51.680;5.134;2023-08-21T14:18:11;7.75;;;1.80;;
70545;SDS011;58098;51.680;5.134;2023-08-21T14:20:36;4.37;;;1.50;;
70545;SDS011;58098;51.680;5.134;2023-08-21T14:23:02;4.00;;;1.37;;
70545;SDS011;58098;51.680;5.134;2023-08-21T14:25:27;6.43;;;1.83;;
70545;SDS011;58098;51.680;5.134;2023-08-21T14:27:53;4.80;;;1.65;;
70545;SDS011;58098;51.680;5.134;2023-08-21T14:30:19;5.73;;;1.60;;
70545;SDS011;58098;51.680;5.134;2023-08-21T14:32:45;6.75;;;2.00;;
70545;SDS011;58098;51.680;5.134;2023-08-21T14:35:11;5.80;;;1.80;;
70545;SDS011;58098;51.680;5.134;2023-08-21T14:37:36;5.83;;;1.53;;
70545;SDS011;58098;51.680;5.134;2023-08-21T14:40:02;7.55;;;1.80;;